createdAt,value
2018-11-05T01:52:01.966Z,46.8
2018-11-05T02:02:48.272Z,43.1
2018-11-05T02:12:59.469Z,34.2
2018-11-05T02:23:25.849Z,38.4
2018-11-05T02:34:13.651Z,40.3
2018-11-05T02:44:25.883Z,35.3
2018-11-05T02:55:12.460Z,48.7
2018-11-05T03:06:08.190Z,53.6
2018-11-05T03:27:21.259Z,50.7
2018-11-05T03:37:34.531Z,59.5
2018-11-05T03:47:48.329Z,49.0
2018-11-05T03:58:00.277Z,44.5
2018-11-05T04:08:52.830Z,56.7
2018-11-05T04:19:48.931Z,51.4
2018-11-05T04:30:22.548Z,45.3
2018-11-05T04:52:19.119Z,65.9
2018-11-05T05:14:01.618Z,80.9
2018-11-05T05:24:15.513Z,63.1
2018-11-05T05:35:28.122Z,67.5
2018-11-05T05:46:32.117Z,90.0
2018-11-05T06:09:10.075Z,62.5
2018-11-05T06:20:01.430Z,97.4
2018-11-05T06:30:35.370Z,70.0
2018-11-05T06:41:21.546Z,120.9
2018-11-05T06:52:10.118Z,142.9
2018-11-05T07:04:39.960Z,116.3
2018-11-05T07:14:53.923Z,87.0
2018-11-05T07:25:40.946Z,171.7
2018-11-05T07:35:54.263Z,115.5
2018-11-05T07:47:33.782Z,142.8
2018-11-05T07:59:29.957Z,145.2
2018-11-05T09:03:03.236Z,163.4
2018-11-05T09:16:24.108Z,127.1
2018-11-05T09:44:13.998Z,119.0
2018-11-05T10:05:24.768Z,91.8
2018-11-05T10:27:58.044Z,82.8
2018-11-05T10:38:13.458Z,61.7
2018-11-05T10:49:07.759Z,62.3
2018-11-05T10:59:23.063Z,51.5
2018-11-05T11:09:38.167Z,45.5
2018-11-05T11:19:53.466Z,42.2
2018-11-05T12:00:23.594Z,38.0
2018-11-05T12:11:17.201Z,42.7
2018-11-05T12:38:26.883Z,43.4
2018-11-05T12:49:22.444Z,54.8
2018-11-05T13:03:14.900Z,41.4
2018-11-05T13:13:29.783Z,49.6
2018-11-05T13:23:44.946Z,43.4
2018-11-05T13:34:58.393Z,47.9
2018-11-05T13:47:37.208Z,40.3
2018-11-05T14:13:10.840Z,55.2
2018-11-05T14:25:55.891Z,50.2
2018-11-05T14:50:53.010Z,42.0
2018-11-05T15:06:02.617Z,47.9
2018-11-05T15:17:35.295Z,39.7
2018-11-05T15:28:35.099Z,44.7
2018-11-05T15:38:54.119Z,35.8
2018-11-05T15:49:13.491Z,47.0
2018-11-05T16:00:06.504Z,47.6
2018-11-05T17:31:17.781Z,53.1
2018-11-05T17:52:18.405Z,56.1
2018-11-05T18:04:16.925Z,60.0
2018-11-05T18:15:04.264Z,56.4
2018-11-05T18:42:19.158Z,47.1
2018-11-05T20:01:40.413Z,71.8
2018-11-05T20:12:48.055Z,51.3
2018-11-05T20:24:46.691Z,62.5
2018-11-05T20:36:23.505Z,77.2
2018-11-05T20:48:02.842Z,75.5
2018-11-05T20:59:57.764Z,57.9
2018-11-05T21:11:38.993Z,50.1
2018-11-05T21:24:14.540Z,52.4
2018-11-05T21:36:43.092Z,73.0
2018-11-05T21:48:35.863Z,47.6
2018-11-05T22:00:09.260Z,60.2
2018-11-05T22:11:41.868Z,68.0
2018-11-05T22:21:57.923Z,42.5
2018-11-05T22:33:08.128Z,48.4
2018-11-05T22:44:06.445Z,49.8
2018-11-05T22:55:31.306Z,47.4
2018-11-05T23:06:30.267Z,47.9
2018-11-05T23:16:44.774Z,58.1
2018-11-05T23:27:35.994Z,42.6
2018-11-05T23:38:48.164Z,35.9
2018-11-05T23:50:58.282Z,43.9
